sensor_id;sensor_type;location;lat;lon;timestamp;temperature;humidity
10010;DHT22;5044;48.652;9.250;2022-12-22T00:00:03;7.50;99.90
10010;DHT22;5044;48.652;9.250;2022-12-22T00:02:47;7.50;99.90
10010;DHT22;5044;48.652;9.250;2022-12-22T00:05:32;7.60;99.90
10010;DHT22;5044;48.652;9.250;2022-12-22T00:08:17;7.60;99.90
10010;DHT22;5044;48.652;9.250;2022-12-22T00:11:05;7.50;99.90
10010;DHT22;5044;48.652;9.250;2022-12-22T00:13:52;7.60;99.90
10010;DHT22;5044;48.652;9.250;2022-12-22T00:16:37;7.50;99.90
10010;DHT22;5044;48.652;9.250;2022-12-22T00:19:22;7.60;99.90
10010;DHT22;5044;48.652;9.250;2022-12-22T00:22:13;7.60;99.90
10010;DHT22;5044;48.652;9.250;2022-12-22T00:24:59;7.60;99.90
10010;DHT22;5044;48.652;9.250;2022-12-22T00:27:43;7.60;99.90
10010;DHT22;5044;48.652;9.250;2022-12-22T00:30:28;7.60;99.90
10010;DHT22;5044;48.652;9.250;2022-12-22T00:33:13;7.60;99.90
10010;DHT22;5044;48.652;9.250;2022-12-22T00:36:01;7.60;99.90
10010;DHT22;5044;48.652;9.250;2022-12-22T00:38:46;7.60;99.90
10010;DHT22;5044;48.652;9.250;2022-12-22T00:41:33;7.60;99.90
10010;DHT22;5044;48.652;9.250;2022-12-22T00:44:17;7.60;99.90
10010;DHT22;5044;48.652;9.250;2022-12-22T00:47:02;7.60;99.90
10010;DHT22;5044;48.652;9.250;2022-12-22T00:49:47;7.60;99.90
10010;DHT22;5044;48.652;9.250;2022-12-22T00:52:34;7.60;99.90
10010;DHT22;5044;48.652;9.250;2022-12-22T00:55:21;7.60;99.90
10010;DHT22;5044;48.652;9.250;2022-12-22T00:58:14;7.70;99.90
10010;DHT22;5044;48.652;9.250;2022-12-22T01:00:59;7.80;99.90
10010;DHT22;5044;48.652;9.250;2022-12-22T01:03:43;7.80;99.90
10010;DHT22;5044;48.652;9.250;2022-12-22T01:06:30;7.80;99.90
10010;DHT22;5044;48.652;9.250;2022-12-22T01:09:15;7.90;99.90
10010;DHT22;5044;48.652;9.250;2022-12-22T01:12:00;7.80;99.90
10010;DHT22;5044;48.652;9.250;2022-12-22T01:14:46;7.80;99.90
10010;DHT22;5044;48.652;9.250;2022-12-22T01:17:30;7.80;99.90
10010;DHT22;5044;48.652;9.250;2022-12-22T01:20:15;7.90;99.90
10010;DHT22;5044;48.652;9.250;2022-12-22T01:23:00;7.90;99.90
10010;DHT22;5044;48.652;9.250;2022-12-22T01:25:44;7.90;99.90
10010;DHT22;5044;48.652;9.250;2022-12-22T01:28:29;8.00;99.90
10010;DHT22;5044;48.652;9.250;2022-12-22T01:31:17;8.00;99.90
10010;DHT22;5044;48.652;9.250;2022-12-22T01:34:04;8.00;99.90
10010;DHT22;5044;48.652;9.250;2022-12-22T01:36:48;8.00;99.90
10010;DHT22;5044;48.652;9.250;2022-12-22T01:39:32;8.00;99.90
10010;DHT22;5044;48.652;9.250;2022-12-22T01:42:16;8.00;99.90
10010;DHT22;5044;48.652;9.250;2022-12-22T01:45:14;8.00;99.90
10010;DHT22;5044;48.652;9.250;2022-12-22T01:48:02;8.00;99.90
10010;DHT22;5044;48.652;9.250;2022-12-22T01:50:46;8.00;99.90
10010;DHT22;5044;48.652;9.250;2022-12-22T01:53:31;8.00;99.90
10010;DHT22;5044;48.652;9.250;2022-12-22T01:56:18;8.00;99.90
10010;DHT22;5044;48.652;9.250;2022-12-22T01:59:03;8.00;99.90
10010;DHT22;5044;48.652;9.250;2022-12-22T02:01:47;8.00;99.90
10010;DHT22;5044;48.652;9.250;2022-12-22T02:04:35;8.00;99.90
10010;DHT22;5044;48.652;9.250;2022-12-22T02:07:32;8.00;99.90
10010;DHT22;5044;48.652;9.250;2022-12-22T02:13:21;8.00;99.90
10010;DHT22;5044;48.652;9.250;2022-12-22T02:16:10;8.00;99.90
10010;DHT22;5044;48.652;9.250;2022-12-22T02:19:01;8.00;99.90
10010;DHT22;5044;48.652;9.250;2022-12-22T02:21:55;8.10;99.90
10010;DHT22;5044;48.652;9.250;2022-12-22T02:24:46;8.00;99.90
10010;DHT22;5044;48.652;9.250;2022-12-22T02:27:35;8.10;99.90
10010;DHT22;5044;48.652;9.250;2022-12-22T02:30:21;8.10;99.90
10010;DHT22;5044;48.652;9.250;2022-12-22T02:33:07;8.10;99.90
10010;DHT22;5044;48.652;9.250;2022-12-22T02:35:58;8.10;99.90
10010;DHT22;5044;48.652;9.250;2022-12-22T02:38:52;8.10;99.90
10010;DHT22;5044;48.652;9.250;2022-12-22T02:41:47;8.10;99.90
10010;DHT22;5044;48.652;9.250;2022-12-22T02:44:41;8.20;99.90
10010;DHT22;5044;48.652;9.250;2022-12-22T02:47:33;8.20;99.90
10010;DHT22;5044;48.652;9.250;2022-12-22T02:50:23;8.20;99.90
10010;DHT22;5044;48.652;9.250;2022-12-22T02:53:09;8.20;99.90
10010;DHT22;5044;48.652;9.250;2022-12-22T02:55:59;8.20;99.90
10010;DHT22;5044;48.652;9.250;2022-12-22T02:58:45;8.20;99.90
10010;DHT22;5044;48.652;9.250;2022-12-22T03:01:31;8.20;99.90
10010;DHT22;5044;48.652;9.250;2022-12-22T03:04:16;8.10;99.90
10010;DHT22;5044;48.652;9.250;2022-12-22T03:07:00;8.10;99.90
10010;DHT22;5044;48.652;9.250;2022-12-22T03:09:45;8.10;99.90
10010;DHT22;5044;48.652;9.250;2022-12-22T03:12:29;8.10;99.90
10010;DHT22;5044;48.652;9.250;2022-12-22T03:15:13;8.10;99.90
10010;DHT22;5044;48.652;9.250;2022-12-22T03:18:02;8.10;99.90
10010;DHT22;5044;48.652;9.250;2022-12-22T03:20:46;8.10;99.90
10010;DHT22;5044;48.652;9.250;2022-12-22T03:23:31;8.20;99.90
10010;DHT22;5044;48.652;9.250;2022-12-22T03:26:16;8.20;99.90
10010;DHT22;5044;48.652;9.250;2022-12-22T03:28:43;8.20;99.90
10010;DHT22;5044;48.652;9.250;2022-12-22T03:31:10;8.20;99.90
10010;DHT22;5044;48.652;9.250;2022-12-22T03:33:39;8.20;99.90
10010;DHT22;5044;48.652;9.250;2022-12-22T03:36:07;8.20;99.90
10010;DHT22;5044;48.652;9.250;2022-12-22T03:38:34;8.10;99.90
10010;DHT22;5044;48.652;9.250;2022-12-22T03:41:03;8.10;99.90
10010;DHT22;5044;48.652;9.250;2022-12-22T03:43:30;8.10;99.90
10010;DHT22;5044;48.652;9.250;2022-12-22T03:46:16;8.10;99.90
10010;DHT22;5044;48.652;9.250;2022-12-22T03:49:01;8.10;99.90
10010;DHT22;5044;48.652;9.250;2022-12-22T03:51:39;8.10;99.90
10010;DHT22;5044;48.652;9.250;2022-12-22T03:54:07;8.10;99.90
10010;DHT22;5044;48.652;9.250;2022-12-22T03:56:34;8.10;99.90
10010;DHT22;5044;48.652;9.250;2022-12-22T03:59:06;8.10;99.90
10010;DHT22;5044;48.652;9.250;2022-12-22T04:01:37;8.10;99.90
10010;DHT22;5044;48.652;9.250;2022-12-22T04:04:06;8.10;99.90
10010;DHT22;5044;48.652;9.250;2022-12-22T04:06:33;8.10;99.90
10010;DHT22;5044;48.652;9.250;2022-12-22T04:09:00;8.20;99.90
10010;DHT22;5044;48.652;9.250;2022-12-22T04:11:28;8.20;99.90
10010;DHT22;5044;48.652;9.250;2022-12-22T04:14:12;8.20;99.90
10010;DHT22;5044;48.652;9.250;2022-12-22T04:16:39;8.30;99.90
10010;DHT22;5044;48.652;9.250;2022-12-22T04:19:08;8.30;99.90
10010;DHT22;5044;48.652;9.250;2022-12-22T04:21:35;8.30;99.90
10010;DHT22;5044;48.652;9.250;2022-12-22T04:24:03;8.30;99.90
10010;DHT22;5044;48.652;9.250;2022-12-22T04:26:30;8.30;99.90
10010;DHT22;5044;48.652;9.250;2022-12-22T04:28:58;8.30;99.90
10010;DHT22;5044;48.652;9.250;2022-12-22T04:31:24;8.30;99.90
10010;DHT22;5044;48.652;9.250;2022-12-22T04:33:51;8.40;99.90
10010;DHT22;5044;48.652;9.250;2022-12-22T04:36:20;8.30;99.90
10010;DHT22;5044;48.652;9.250;2022-12-22T04:38:48;8.40;99.90
10010;DHT22;5044;48.652;9.250;2022-12-22T04:41:15;8.40;99.90
10010;DHT22;5044;48.652;9.250;2022-12-22T04:43:42;8.50;99.90
10010;DHT22;5044;48.652;9.250;2022-12-22T04:46:09;8.50;99.90
10010;DHT22;5044;48.652;9.250;2022-12-22T04:48:35;8.50;99.90
10010;DHT22;5044;48.652;9.250;2022-12-22T04:51:03;8.50;99.90
10010;DHT22;5044;48.652;9.250;2022-12-22T04:53:31;8.50;99.90
10010;DHT22;5044;48.652;9.250;2022-12-22T04:55:59;8.40;99.90
10010;DHT22;5044;48.652;9.250;2022-12-22T04:58:27;8.50;99.90
10010;DHT22;5044;48.652;9.250;2022-12-22T05:01:07;8.50;99.90
10010;DHT22;5044;48.652;9.250;2022-12-22T05:03:34;8.40;99.90
10010;DHT22;5044;48.652;9.250;2022-12-22T05:06:01;8.50;99.90
10010;DHT22;5044;48.652;9.250;2022-12-22T05:08:28;8.50;99.90
10010;DHT22;5044;48.652;9.250;2022-12-22T05:10:57;8.50;99.90
10010;DHT22;5044;48.652;9.250;2022-12-22T05:13:25;8.70;99.90
10010;DHT22;5044;48.652;9.250;2022-12-22T05:15:52;8.50;99.90
10010;DHT22;5044;48.652;9.250;2022-12-22T05:18:19;8.50;99.90
10010;DHT22;5044;48.652;9.250;2022-12-22T05:20:46;8.50;99.90
10010;DHT22;5044;48.652;9.250;2022-12-22T05:23:13;8.50;99.90
10010;DHT22;5044;48.652;9.250;2022-12-22T05:25:40;8.80;99.90
10010;DHT22;5044;48.652;9.250;2022-12-22T05:28:08;8.60;99.90
10010;DHT22;5044;48.652;9.250;2022-12-22T05:30:35;8.60;99.90
10010;DHT22;5044;48.652;9.250;2022-12-22T05:33:02;8.60;99.90
10010;DHT22;5044;48.652;9.250;2022-12-22T05:35:30;8.60;99.90
10010;DHT22;5044;48.652;9.250;2022-12-22T05:38:00;8.60;99.90
10010;DHT22;5044;48.652;9.250;2022-12-22T05:40:27;8.60;99.90
10010;DHT22;5044;48.652;9.250;2022-12-22T05:42:54;8.60;99.90
10010;DHT22;5044;48.652;9.250;2022-12-22T05:45:27;8.60;99.90
10010;DHT22;5044;48.652;9.250;2022-12-22T05:47:54;8.60;99.90
10010;DHT22;5044;48.652;9.250;2022-12-22T05:50:23;8.60;99.90
10010;DHT22;5044;48.652;9.250;2022-12-22T05:52:50;8.60;99.90
10010;DHT22;5044;48.652;9.250;2022-12-22T05:55:17;8.60;99.90
10010;DHT22;5044;48.652;9.250;2022-12-22T05:57:44;8.60;99.90
10010;DHT22;5044;48.652;9.250;2022-12-22T06:00:15;8.60;99.90
10010;DHT22;5044;48.652;9.250;2022-12-22T06:02:44;8.60;99.90
10010;DHT22;5044;48.652;9.250;2022-12-22T06:05:12;8.60;99.90
10010;DHT22;5044;48.652;9.250;2022-12-22T06:07:39;8.60;99.90
10010;DHT22;5044;48.652;9.250;2022-12-22T06:10:09;8.50;99.90
10010;DHT22;5044;48.652;9.250;2022-12-22T06:12:36;8.50;99.90
10010;DHT22;5044;48.652;9.250;2022-12-22T06:15:04;8.60;99.90
10010;DHT22;5044;48.652;9.250;2022-12-22T06:17:31;8.60;99.90
10010;DHT22;5044;48.652;9.250;2022-12-22T06:20:00;8.60;99.90
10010;DHT22;5044;48.652;9.250;2022-12-22T06:22:26;8.60;99.90
10010;DHT22;5044;48.652;9.250;2022-12-22T06:24:53;8.50;99.90
10010;DHT22;5044;48.652;9.250;2022-12-22T06:27:21;8.50;99.90
10010;DHT22;5044;48.652;9.250;2022-12-22T06:29:48;8.50;99.90
10010;DHT22;5044;48.652;9.250;2022-12-22T06:32:15;8.50;99.90
10010;DHT22;5044;48.652;9.250;2022-12-22T06:34:42;8.50;99.90
10010;DHT22;5044;48.652;9.250;2022-12-22T06:37:10;8.40;99.90
10010;DHT22;5044;48.652;9.250;2022-12-22T06:39:37;8.50;99.90
10010;DHT22;5044;48.652;9.250;2022-12-22T06:42:04;8.40;99.90
10010;DHT22;5044;48.652;9.250;2022-12-22T06:44:48;8.40;99.90
10010;DHT22;5044;48.652;9.250;2022-12-22T06:47:16;8.50;99.90
10010;DHT22;5044;48.652;9.250;2022-12-22T06:49:44;8.40;99.90
10010;DHT22;5044;48.652;9.250;2022-12-22T06:52:13;8.40;99.90
10010;DHT22;5044;48.652;9.250;2022-12-22T06:54:40;8.40;99.90
10010;DHT22;5044;48.652;9.250;2022-12-22T06:57:07;8.40;99.90
10010;DHT22;5044;48.652;9.250;2022-12-22T06:59:34;8.40;99.90
10010;DHT22;5044;48.652;9.250;2022-12-22T07:02:01;8.50;99.90
10010;DHT22;5044;48.652;9.250;2022-12-22T07:04:28;8.40;99.90
10010;DHT22;5044;48.652;9.250;2022-12-22T07:06:56;8.40;99.90
10010;DHT22;5044;48.652;9.250;2022-12-22T07:09:24;8.40;99.90
10010;DHT22;5044;48.652;9.250;2022-12-22T07:11:51;8.40;99.90
10010;DHT22;5044;48.652;9.250;2022-12-22T07:14:18;8.40;99.90
10010;DHT22;5044;48.652;9.250;2022-12-22T07:16:46;8.40;99.90
10010;DHT22;5044;48.652;9.250;2022-12-22T07:19:13;8.30;99.90
10010;DHT22;5044;48.652;9.250;2022-12-22T07:21:40;8.30;99.90
10010;DHT22;5044;48.652;9.250;2022-12-22T07:24:08;8.30;99.90
10010;DHT22;5044;48.652;9.250;2022-12-22T07:26:37;8.30;99.90
10010;DHT22;5044;48.652;9.250;2022-12-22T07:29:04;8.30;99.90
10010;DHT22;5044;48.652;9.250;2022-12-22T07:31:31;8.30;99.90
10010;DHT22;5044;48.652;9.250;2022-12-22T07:33:58;8.30;99.90
10010;DHT22;5044;48.652;9.250;2022-12-22T07:36:25;8.30;99.90
10010;DHT22;5044;48.652;9.250;2022-12-22T07:38:52;8.30;99.90
10010;DHT22;5044;48.652;9.250;2022-12-22T07:41:19;8.40;99.90
10010;DHT22;5044;48.652;9.250;2022-12-22T07:44:06;8.60;99.90
10010;DHT22;5044;48.652;9.250;2022-12-22T07:46:36;8.50;99.90
10010;DHT22;5044;48.652;9.250;2022-12-22T07:49:03;8.50;99.90
10010;DHT22;5044;48.652;9.250;2022-12-22T07:51:57;8.50;99.90
10010;DHT22;5044;48.652;9.250;2022-12-22T07:54:25;8.60;99.90
10010;DHT22;5044;48.652;9.250;2022-12-22T07:56:53;8.50;99.90
10010;DHT22;5044;48.652;9.250;2022-12-22T07:59:22;8.70;99.90
10010;DHT22;5044;48.652;9.250;2022-12-22T08:01:49;8.60;99.90
10010;DHT22;5044;48.652;9.250;2022-12-22T08:04:16;8.70;99.90
10010;DHT22;5044;48.652;9.250;2022-12-22T08:06:43;8.60;99.90
10010;DHT22;5044;48.652;9.250;2022-12-22T08:09:15;8.50;99.90
10010;DHT22;5044;48.652;9.250;2022-12-22T08:11:42;8.60;99.90
10010;DHT22;5044;48.652;9.250;2022-12-22T08:14:10;8.50;99.90
10010;DHT22;5044;48.652;9.250;2022-12-22T08:16:42;8.50;99.90
10010;DHT22;5044;48.652;9.250;2022-12-22T08:19:10;8.50;99.90
10010;DHT22;5044;48.652;9.250;2022-12-22T08:21:37;8.50;99.90
10010;DHT22;5044;48.652;9.250;2022-12-22T08:24:05;8.40;99.90
10010;DHT22;5044;48.652;9.250;2022-12-22T08:26:35;8.40;99.90
10010;DHT22;5044;48.652;9.250;2022-12-22T08:29:07;8.40;99.90
10010;DHT22;5044;48.652;9.250;2022-12-22T08:31:35;8.50;99.90
10010;DHT22;5044;48.652;9.250;2022-12-22T08:34:06;8.50;99.90
10010;DHT22;5044;48.652;9.250;2022-12-22T08:36:39;8.50;99.90
10010;DHT22;5044;48.652;9.250;2022-12-22T08:39:07;8.50;99.90
10010;DHT22;5044;48.652;9.250;2022-12-22T08:41:35;8.50;99.90
10010;DHT22;5044;48.652;9.250;2022-12-22T08:44:20;8.50;99.90
10010;DHT22;5044;48.652;9.250;2022-12-22T08:46:49;8.50;99.90
10010;DHT22;5044;48.652;9.250;2022-12-22T08:49:19;8.50;99.90
10010;DHT22;5044;48.652;9.250;2022-12-22T08:51:46;8.60;99.90
10010;DHT22;5044;48.652;9.250;2022-12-22T08:54:14;8.60;99.90
10010;DHT22;5044;48.652;9.250;2022-12-22T08:56:42;8.60;99.90
10010;DHT22;5044;48.652;9.250;2022-12-22T08:59:09;8.70;99.90
10010;DHT22;5044;48.652;9.250;2022-12-22T09:01:38;8.80;99.90
10010;DHT22;5044;48.652;9.250;2022-12-22T09:04:07;8.90;99.90
10010;DHT22;5044;48.652;9.250;2022-12-22T09:06:35;8.90;99.90
10010;DHT22;5044;48.652;9.250;2022-12-22T09:09:05;8.90;99.90
10010;DHT22;5044;48.652;9.250;2022-12-22T09:11:33;8.90;99.90
10010;DHT22;5044;48.652;9.250;2022-12-22T09:14:01;9.00;99.90
10010;DHT22;5044;48.652;9.250;2022-12-22T09:16:29;9.00;99.90
10010;DHT22;5044;48.652;9.250;2022-12-22T09:18:56;9.10;99.90
10010;DHT22;5044;48.652;9.250;2022-12-22T09:21:24;9.20;99.90
10010;DHT22;5044;48.652;9.250;2022-12-22T09:23:54;9.30;99.90
10010;DHT22;5044;48.652;9.250;2022-12-22T09:26:24;9.30;99.90
10010;DHT22;5044;48.652;9.250;2022-12-22T09:28:52;9.20;99.90
10010;DHT22;5044;48.652;9.250;2022-12-22T09:31:20;9.10;99.90
10010;DHT22;5044;48.652;9.250;2022-12-22T09:33:48;9.10;99.90
10010;DHT22;5044;48.652;9.250;2022-12-22T09:36:18;9.00;99.90
10010;DHT22;5044;48.652;9.250;2022-12-22T09:38:47;9.00;99.90
10010;DHT22;5044;48.652;9.250;2022-12-22T09:41:18;9.20;99.90
10010;DHT22;5044;48.652;9.250;2022-12-22T09:43:45;8.90;99.90
10010;DHT22;5044;48.652;9.250;2022-12-22T09:46:18;8.90;99.90
10010;DHT22;5044;48.652;9.250;2022-12-22T09:48:46;8.90;99.90
10010;DHT22;5044;48.652;9.250;2022-12-22T09:51:14;8.90;99.90
10010;DHT22;5044;48.652;9.250;2022-12-22T09:53:43;8.90;99.90
10010;DHT22;5044;48.652;9.250;2022-12-22T09:56:13;8.90;99.90
10010;DHT22;5044;48.652;9.250;2022-12-22T09:58:43;8.80;99.90
10010;DHT22;5044;48.652;9.250;2022-12-22T10:01:31;8.80;99.90
10010;DHT22;5044;48.652;9.250;2022-12-22T10:04:04;8.80;99.90
10010;DHT22;5044;48.652;9.250;2022-12-22T10:06:36;8.80;99.90
10010;DHT22;5044;48.652;9.250;2022-12-22T10:09:13;8.80;99.90
10010;DHT22;5044;48.652;9.250;2022-12-22T10:11:49;8.80;99.90
10010;DHT22;5044;48.652;9.250;2022-12-22T10:14:18;8.80;99.90
10010;DHT22;5044;48.652;9.250;2022-12-22T10:16:44;8.80;99.90
10010;DHT22;5044;48.652;9.250;2022-12-22T10:19:13;8.80;99.90
10010;DHT22;5044;48.652;9.250;2022-12-22T10:21:41;8.80;99.90
10010;DHT22;5044;48.652;9.250;2022-12-22T10:24:15;8.80;99.90
10010;DHT22;5044;48.652;9.250;2022-12-22T10:26:44;8.90;99.90
10010;DHT22;5044;48.652;9.250;2022-12-22T10:29:13;8.90;99.90
10010;DHT22;5044;48.652;9.250;2022-12-22T10:32:00;8.90;99.90
10010;DHT22;5044;48.652;9.250;2022-12-22T10:34:27;8.90;99.90
10010;DHT22;5044;48.652;9.250;2022-12-22T10:36:59;8.90;99.90
10010;DHT22;5044;48.652;9.250;2022-12-22T10:39:29;8.90;99.90
10010;DHT22;5044;48.652;9.250;2022-12-22T10:42:01;8.90;99.90
10010;DHT22;5044;48.652;9.250;2022-12-22T10:44:30;9.00;99.90
10010;DHT22;5044;48.652;9.250;2022-12-22T10:47:10;9.00;99.90
10010;DHT22;5044;48.652;9.250;2022-12-22T10:49:39;9.20;99.90
10010;DHT22;5044;48.652;9.250;2022-12-22T10:52:10;9.10;99.90
10010;DHT22;5044;48.652;9.250;2022-12-22T10:54:39;9.20;99.90
10010;DHT22;5044;48.652;9.250;2022-12-22T10:57:24;9.20;99.90
10010;DHT22;5044;48.652;9.250;2022-12-22T10:59:55;9.20;99.90
10010;DHT22;5044;48.652;9.250;2022-12-22T11:02:37;9.20;99.90
10010;DHT22;5044;48.652;9.250;2022-12-22T11:05:06;9.20;99.90
10010;DHT22;5044;48.652;9.250;2022-12-22T11:07:35;9.20;99.90
10010;DHT22;5044;48.652;9.250;2022-12-22T11:10:14;9.20;99.90
10010;DHT22;5044;48.652;9.250;2022-12-22T11:12:54;9.20;99.90
10010;DHT22;5044;48.652;9.250;2022-12-22T11:15:30;9.30;99.90
10010;DHT22;5044;48.652;9.250;2022-12-22T11:18:06;9.20;99.90
10010;DHT22;5044;48.652;9.250;2022-12-22T11:20:46;9.20;99.90
10010;DHT22;5044;48.652;9.250;2022-12-22T11:23:22;9.30;99.90
10010;DHT22;5044;48.652;9.250;2022-12-22T11:25:59;9.40;99.90
10010;DHT22;5044;48.652;9.250;2022-12-22T11:28:42;9.40;99.90
10010;DHT22;5044;48.652;9.250;2022-12-22T11:31:41;9.40;99.90
10010;DHT22;5044;48.652;9.250;2022-12-22T11:34:25;9.40;99.90
10010;DHT22;5044;48.652;9.250;2022-12-22T11:37:03;9.60;99.90
10010;DHT22;5044;48.652;9.250;2022-12-22T11:39:39;9.60;99.90
10010;DHT22;5044;48.652;9.250;2022-12-22T11:42:22;9.60;99.90
10010;DHT22;5044;48.652;9.250;2022-12-22T11:45:01;9.70;99.90
10010;DHT22;5044;48.652;9.250;2022-12-22T11:47:35;9.80;99.90
10010;DHT22;5044;48.652;9.250;2022-12-22T11:50:27;9.90;99.90
10010;DHT22;5044;48.652;9.250;2022-12-22T11:53:05;10.00;99.90
10010;DHT22;5044;48.652;9.250;2022-12-22T11:55:44;10.00;99.90
10010;DHT22;5044;48.652;9.250;2022-12-22T11:58:28;10.00;99.90
10010;DHT22;5044;48.652;9.250;2022-12-22T12:01:22;10.10;99.90
10010;DHT22;5044;48.652;9.250;2022-12-22T12:04:29;10.10;99.90
10010;DHT22;5044;48.652;9.250;2022-12-22T12:07:24;10.20;99.90
10010;DHT22;5044;48.652;9.250;2022-12-22T12:10:01;10.20;99.90
10010;DHT22;5044;48.652;9.250;2022-12-22T12:12:37;10.20;99.90
10010;DHT22;5044;48.652;9.250;2022-12-22T12:15:20;10.40;99.90
10010;DHT22;5044;48.652;9.250;2022-12-22T12:18:14;10.70;99.90
10010;DHT22;5044;48.652;9.250;2022-12-22T12:21:00;10.80;99.90
10010;DHT22;5044;48.652;9.250;2022-12-22T12:23:54;11.00;99.90
10010;DHT22;5044;48.652;9.250;2022-12-22T12:26:27;11.20;99.90
10010;DHT22;5044;48.652;9.250;2022-12-22T12:29:05;11.20;99.90
10010;DHT22;5044;48.652;9.250;2022-12-22T12:31:42;11.10;99.90
10010;DHT22;5044;48.652;9.250;2022-12-22T12:34:13;10.90;99.90
10010;DHT22;5044;48.652;9.250;2022-12-22T12:36:46;10.90;99.90
10010;DHT22;5044;48.652;9.250;2022-12-22T12:39:24;11.00;99.90
10010;DHT22;5044;48.652;9.250;2022-12-22T12:42:01;11.00;99.90
10010;DHT22;5044;48.652;9.250;2022-12-22T12:44:32;10.80;99.90
10010;DHT22;5044;48.652;9.250;2022-12-22T12:47:19;10.80;99.90
10010;DHT22;5044;48.652;9.250;2022-12-22T12:53:08;10.80;99.90
10010;DHT22;5044;48.652;9.250;2022-12-22T12:58:55;10.70;99.90
10010;DHT22;5044;48.652;9.250;2022-12-22T13:01:54;10.60;99.90
10010;DHT22;5044;48.652;9.250;2022-12-22T13:08:10;10.50;99.90
10010;DHT22;5044;48.652;9.250;2022-12-22T13:10:48;10.50;99.90
10010;DHT22;5044;48.652;9.250;2022-12-22T13:13:44;10.60;99.90
10010;DHT22;5044;48.652;9.250;2022-12-22T13:16:38;10.50;99.90
10010;DHT22;5044;48.652;9.250;2022-12-22T13:19:22;10.50;99.90
10010;DHT22;5044;48.652;9.250;2022-12-22T13:21:49;10.50;99.90
10010;DHT22;5044;48.652;9.250;2022-12-22T13:24:20;10.40;99.90
10010;DHT22;5044;48.652;9.250;2022-12-22T13:26:50;10.40;99.90
10010;DHT22;5044;48.652;9.250;2022-12-22T13:29:26;10.50;99.90
10010;DHT22;5044;48.652;9.250;2022-12-22T13:31:56;10.40;99.90
10010;DHT22;5044;48.652;9.250;2022-12-22T13:34:35;10.50;99.90
10010;DHT22;5044;48.652;9.250;2022-12-22T13:37:12;10.40;99.90
10010;DHT22;5044;48.652;9.250;2022-12-22T13:39:41;10.30;99.90
10010;DHT22;5044;48.652;9.250;2022-12-22T13:42:10;10.40;99.90
10010;DHT22;5044;48.652;9.250;2022-12-22T13:44:39;10.30;99.90
10010;DHT22;5044;48.652;9.250;2022-12-22T13:47:11;10.30;99.90
10010;DHT22;5044;48.652;9.250;2022-12-22T13:49:40;10.30;99.90
10010;DHT22;5044;48.652;9.250;2022-12-22T13:52:12;10.30;99.90
10010;DHT22;5044;48.652;9.250;2022-12-22T13:54:42;10.30;99.90
10010;DHT22;5044;48.652;9.250;2022-12-22T13:57:15;10.30;99.90
10010;DHT22;5044;48.652;9.250;2022-12-22T13:59:44;10.30;99.90
10010;DHT22;5044;48.652;9.250;2022-12-22T14:02:16;10.30;99.90
10010;DHT22;5044;48.652;9.250;2022-12-22T14:04:45;10.40;99.90
10010;DHT22;5044;48.652;9.250;2022-12-22T14:07:27;10.40;99.90
10010;DHT22;5044;48.652;9.250;2022-12-22T14:09:56;10.50;99.90
10010;DHT22;5044;48.652;9.250;2022-12-22T14:12:24;10.70;99.90
10010;DHT22;5044;48.652;9.250;2022-12-22T14:14:56;10.40;99.90
10010;DHT22;5044;48.652;9.250;2022-12-22T14:17:26;10.30;99.90
10010;DHT22;5044;48.652;9.250;2022-12-22T14:19:56;10.30;99.90
10010;DHT22;5044;48.652;9.250;2022-12-22T14:22:26;10.20;99.90
10010;DHT22;5044;48.652;9.250;2022-12-22T14:24:56;10.20;99.90
10010;DHT22;5044;48.652;9.250;2022-12-22T14:27:30;10.10;99.90
10010;DHT22;5044;48.652;9.250;2022-12-22T14:30:01;10.20;99.90
10010;DHT22;5044;48.652;9.250;2022-12-22T14:32:36;10.10;99.90
10010;DHT22;5044;48.652;9.250;2022-12-22T14:35:22;10.10;99.90
10010;DHT22;5044;48.652;9.250;2022-12-22T14:37:52;10.10;99.90
10010;DHT22;5044;48.652;9.250;2022-12-22T14:40:33;10.00;99.90
10010;DHT22;5044;48.652;9.250;2022-12-22T14:43:02;9.90;99.90
10010;DHT22;5044;48.652;9.250;2022-12-22T14:45:30;9.90;99.90
10010;DHT22;5044;48.652;9.250;2022-12-22T14:47:58;9.90;99.90
10010;DHT22;5044;48.652;9.250;2022-12-22T14:50:27;9.80;99.90
10010;DHT22;5044;48.652;9.250;2022-12-22T14:52:55;9.80;99.90
10010;DHT22;5044;48.652;9.250;2022-12-22T14:55:27;9.80;99.90
10010;DHT22;5044;48.652;9.250;2022-12-22T14:57:58;9.70;99.90
10010;DHT22;5044;48.652;9.250;2022-12-22T15:00:30;9.60;99.90
10010;DHT22;5044;48.652;9.250;2022-12-22T15:03:00;9.60;99.90
10010;DHT22;5044;48.652;9.250;2022-12-22T15:05:30;9.40;99.90
10010;DHT22;5044;48.652;9.250;2022-12-22T15:07:58;9.60;99.90
10010;DHT22;5044;48.652;9.250;2022-12-22T15:10:28;9.50;99.90
10010;DHT22;5044;48.652;9.250;2022-12-22T15:13:03;9.40;99.90
10010;DHT22;5044;48.652;9.250;2022-12-22T15:15:32;9.40;99.90
10010;DHT22;5044;48.652;9.250;2022-12-22T15:18:02;9.30;99.90
10010;DHT22;5044;48.652;9.250;2022-12-22T15:20:29;9.30;99.90
10010;DHT22;5044;48.652;9.250;2022-12-22T15:22:56;9.20;99.90
10010;DHT22;5044;48.652;9.250;2022-12-22T15:25:23;9.30;99.90
10010;DHT22;5044;48.652;9.250;2022-12-22T15:27:51;9.20;99.90
10010;DHT22;5044;48.652;9.250;2022-12-22T15:30:19;9.20;99.90
10010;DHT22;5044;48.652;9.250;2022-12-22T15:32:47;9.20;99.90
10010;DHT22;5044;48.652;9.250;2022-12-22T15:35:17;9.20;99.90
10010;DHT22;5044;48.652;9.250;2022-12-22T15:37:45;9.20;99.90
10010;DHT22;5044;48.652;9.250;2022-12-22T15:40:14;9.20;99.90
10010;DHT22;5044;48.652;9.250;2022-12-22T15:42:42;9.20;99.90
10010;DHT22;5044;48.652;9.250;2022-12-22T15:45:10;9.10;99.90
10010;DHT22;5044;48.652;9.250;2022-12-22T15:47:39;9.10;99.90
10010;DHT22;5044;48.652;9.250;2022-12-22T15:50:08;9.10;99.90
10010;DHT22;5044;48.652;9.250;2022-12-22T15:52:42;9.10;99.90
10010;DHT22;5044;48.652;9.250;2022-12-22T15:55:13;9.10;99.90
10010;DHT22;5044;48.652;9.250;2022-12-22T15:57:39;9.10;99.90
10010;DHT22;5044;48.652;9.250;2022-12-22T16:00:09;9.10;99.90
10010;DHT22;5044;48.652;9.250;2022-12-22T16:02:37;9.10;99.90
10010;DHT22;5044;48.652;9.250;2022-12-22T16:05:04;9.10;99.90
10010;DHT22;5044;48.652;9.250;2022-12-22T16:07:32;9.10;99.90
10010;DHT22;5044;48.652;9.250;2022-12-22T16:10:00;9.00;99.90
10010;DHT22;5044;48.652;9.250;2022-12-22T16:12:28;9.10;99.90
10010;DHT22;5044;48.652;9.250;2022-12-22T16:14:57;9.10;99.90
10010;DHT22;5044;48.652;9.250;2022-12-22T16:17:26;9.10;99.90
10010;DHT22;5044;48.652;9.250;2022-12-22T16:19:54;9.10;99.90
10010;DHT22;5044;48.652;9.250;2022-12-22T16:22:28;9.10;99.90
10010;DHT22;5044;48.652;9.250;2022-12-22T16:24:56;9.10;99.90
10010;DHT22;5044;48.652;9.250;2022-12-22T16:27:25;9.10;99.90
10010;DHT22;5044;48.652;9.250;2022-12-22T16:29:52;9.10;99.90
10010;DHT22;5044;48.652;9.250;2022-12-22T16:32:23;9.00;99.90
10010;DHT22;5044;48.652;9.250;2022-12-22T16:34:51;9.00;99.90
10010;DHT22;5044;48.652;9.250;2022-12-22T16:37:18;9.00;99.90
10010;DHT22;5044;48.652;9.250;2022-12-22T16:39:45;8.90;99.90
10010;DHT22;5044;48.652;9.250;2022-12-22T16:42:14;8.90;99.90
10010;DHT22;5044;48.652;9.250;2022-12-22T16:44:43;8.90;99.90
10010;DHT22;5044;48.652;9.250;2022-12-22T16:47:16;9.00;99.90
10010;DHT22;5044;48.652;9.250;2022-12-22T16:49:45;8.90;99.90
10010;DHT22;5044;48.652;9.250;2022-12-22T16:52:17;8.90;99.90
10010;DHT22;5044;48.652;9.250;2022-12-22T16:54:45;8.80;99.90
10010;DHT22;5044;48.652;9.250;2022-12-22T16:57:11;8.80;99.90